createdAt,value
2018-06-25T00:00:44.326Z,7.80
2018-06-25T00:03:12.553Z,8.83
2018-06-25T00:05:40.766Z,8.80
2018-06-25T00:08:09.007Z,9.17
2018-06-25T00:10:37.248Z,9.00
2018-06-25T00:13:05.995Z,7.63
2018-06-25T00:15:34.302Z,8.07
2018-06-25T00:18:02.545Z,6.77
2018-06-25T00:20:30.799Z,7.10
2018-06-25T00:22:59.060Z,7.77
2018-06-25T00:25:27.281Z,8.40
2018-06-25T00:27:55.517Z,7.80
2018-06-25T00:30:23.974Z,8.13
2018-06-25T00:32:52.230Z,8.30
2018-06-25T00:35:20.465Z,7.03
2018-06-25T00:37:48.728Z,7.20
2018-06-25T00:40:18.154Z,7.70
2018-06-25T00:42:46.993Z,7.73
2018-06-25T00:45:15.211Z,7.50
2018-06-25T00:47:43.470Z,8.00
2018-06-25T00:50:11.684Z,7.40
2018-06-25T00:52:39.943Z,7.93
2018-06-25T00:55:08.212Z,7.27
2018-06-25T00:57:36.475Z,7.50
2018-06-25T01:00:04.772Z,6.77
2018-06-25T01:02:33.012Z,6.60
2018-06-25T01:05:01.224Z,6.83
2018-06-25T01:07:29.213Z,7.60
2018-06-25T01:09:57.452Z,7.90
2018-06-25T01:12:25.696Z,6.40
2018-06-25T01:14:53.940Z,6.50
2018-06-25T01:17:22.177Z,7.30
2018-06-25T01:19:50.432Z,5.30
2018-06-25T01:22:18.658Z,6.20
2018-06-25T01:24:46.919Z,6.00
2018-06-25T01:27:15.151Z,7.10
2018-06-25T01:29:43.445Z,6.93
2018-06-25T01:32:11.712Z,7.83
2018-06-25T01:34:39.944Z,6.90
2018-06-25T01:37:08.173Z,7.13
2018-06-25T01:39:36.412Z,7.80
2018-06-25T01:42:04.705Z,7.13
2018-06-25T01:44:32.959Z,7.73
2018-06-25T01:47:01.185Z,7.50
2018-06-25T01:49:29.436Z,7.20
2018-06-25T01:51:57.701Z,7.50
2018-06-25T01:54:25.938Z,6.30
2018-06-25T01:56:54.157Z,7.03
2018-06-25T01:59:22.236Z,7.30
2018-06-25T02:01:50.216Z,8.13
2018-06-25T02:04:18.451Z,7.47
2018-06-25T02:06:46.692Z,7.10
2018-06-25T02:09:14.930Z,8.10
2018-06-25T02:11:43.222Z,6.63
2018-06-25T02:14:11.449Z,7.63
2018-06-25T02:16:39.959Z,7.45
2018-06-25T02:19:08.449Z,8.07
2018-06-25T02:21:36.420Z,8.87
2018-06-25T02:24:04.721Z,6.93
2018-06-25T02:26:32.948Z,7.50
2018-06-25T02:29:01.256Z,7.20
2018-06-25T02:31:29.525Z,7.80
2018-06-25T02:33:58.212Z,8.03
2018-06-25T02:36:26.467Z,8.57
2018-06-25T02:38:54.693Z,8.63
2018-06-25T02:41:22.935Z,7.73
2018-06-25T02:43:51.376Z,6.80
2018-06-25T02:46:19.595Z,7.73
2018-06-25T02:48:47.877Z,7.03
2018-06-25T02:51:16.104Z,6.70
2018-06-25T02:53:44.393Z,9.33
2018-06-25T02:56:12.649Z,6.83
2018-06-25T02:58:40.903Z,7.20
2018-06-25T03:01:09.116Z,8.07
2018-06-25T03:03:43.893Z,7.30
2018-06-25T03:06:12.113Z,7.73
2018-06-25T03:08:40.113Z,7.67
2018-06-25T03:11:08.367Z,8.77
2018-06-25T03:13:36.624Z,6.97
2018-06-25T03:16:04.865Z,7.50
2018-06-25T03:18:33.080Z,8.73
2018-06-25T03:21:01.461Z,8.50
2018-06-25T03:23:29.697Z,8.47
2018-06-25T03:25:57.922Z,9.47
2018-06-25T03:28:26.165Z,8.73
2018-06-25T03:30:54.379Z,6.47
2018-06-25T03:33:22.632Z,10.33
2018-06-25T03:35:50.853Z,7.63
2018-06-25T03:38:19.124Z,6.90
2018-06-25T03:40:47.369Z,8.60
2018-06-25T03:43:15.601Z,8.10
2018-06-25T03:45:43.816Z,7.93
2018-06-25T03:48:12.115Z,8.23
2018-06-25T03:53:14.836Z,9.40
2018-06-25T03:55:43.068Z,7.50
2018-06-25T03:58:11.305Z,7.30
2018-06-25T04:00:39.751Z,8.47
2018-06-25T04:03:08.276Z,9.90
2018-06-25T04:05:36.528Z,8.80
2018-06-25T04:08:04.805Z,7.27
2018-06-25T04:10:33.033Z,7.63
2018-06-25T04:13:01.252Z,8.50
2018-06-25T04:15:29.535Z,9.00
2018-06-25T04:17:57.792Z,8.53
2018-06-25T04:20:26.036Z,8.03
2018-06-25T04:22:54.285Z,8.27
2018-06-25T04:25:22.511Z,7.80
2018-06-25T04:27:50.796Z,9.57
2018-06-25T04:30:19.076Z,8.17
2018-06-25T04:32:47.329Z,9.10
2018-06-25T04:35:15.568Z,7.00
2018-06-25T04:37:43.821Z,7.30
2018-06-25T04:40:12.059Z,7.27
2018-06-25T04:42:40.307Z,7.17
2018-06-25T04:45:08.588Z,9.60
2018-06-25T04:47:37.333Z,7.97
2018-06-25T04:50:05.791Z,8.20
2018-06-25T04:52:34.033Z,7.90
2018-06-25T04:55:02.252Z,9.07
2018-06-25T04:57:30.504Z,7.13
2018-06-25T04:59:58.783Z,6.43
2018-06-25T05:02:27.065Z,6.57
2018-06-25T05:04:55.285Z,7.27
2018-06-25T05:07:23.571Z,6.60
2018-06-25T05:09:51.992Z,7.80
2018-06-25T05:12:20.329Z,8.10
2018-06-25T05:14:48.594Z,6.73
2018-06-25T05:17:16.816Z,6.67
2018-06-25T05:19:45.089Z,6.97
2018-06-25T05:22:13.339Z,7.70
2018-06-25T05:24:41.549Z,7.13
2018-06-25T05:27:09.815Z,7.90
2018-06-25T05:29:37.780Z,7.17
2018-06-25T05:32:06.012Z,6.70
2018-06-25T05:34:33.975Z,5.47
2018-06-25T05:37:02.217Z,7.00
2018-06-25T05:39:30.481Z,6.30
2018-06-25T05:41:58.696Z,6.53
2018-06-25T05:44:27.043Z,5.87
2018-06-25T05:46:55.279Z,5.63
2018-06-25T05:49:23.575Z,7.47
2018-06-25T05:51:51.828Z,6.07
2018-06-25T05:54:20.048Z,6.13
2018-06-25T05:56:48.281Z,7.30
2018-06-25T05:59:16.521Z,7.60
2018-06-25T06:01:44.753Z,6.83
2018-06-25T06:04:13.008Z,5.77
2018-06-25T06:06:41.234Z,4.90
2018-06-25T06:09:10.048Z,5.90
2018-06-25T06:11:38.335Z,5.00
2018-06-25T06:14:06.550Z,5.47
2018-06-25T06:16:34.859Z,5.40
2018-06-25T06:19:03.144Z,6.23
2018-06-25T06:21:31.392Z,5.57
2018-06-25T06:23:59.632Z,4.93
2018-06-25T06:26:27.631Z,5.63
2018-06-25T06:28:55.820Z,5.20
2018-06-25T06:31:24.082Z,5.23
2018-06-25T06:33:52.300Z,5.40
2018-06-25T06:36:20.514Z,5.33
2018-06-25T06:38:48.744Z,5.83
2018-06-25T06:41:17.035Z,6.13
2018-06-25T06:43:45.277Z,4.60
2018-06-25T06:46:13.531Z,5.00
2018-06-25T06:48:41.800Z,5.10
2018-06-25T06:51:10.086Z,4.50
2018-06-25T06:53:38.332Z,4.80
2018-06-25T06:56:06.559Z,4.50
2018-06-25T06:58:34.658Z,5.80
2018-06-25T07:01:02.868Z,5.80
2018-06-25T07:03:31.093Z,5.37
2018-06-25T07:05:59.340Z,5.47
2018-06-25T07:08:27.576Z,6.00
2018-06-25T07:10:55.906Z,5.70
2018-06-25T07:13:24.148Z,5.50
2018-06-25T07:15:52.376Z,5.20
2018-06-25T07:18:20.630Z,5.43
2018-06-25T07:20:48.869Z,5.43
2018-06-25T07:23:17.112Z,5.77
2018-06-25T07:25:45.373Z,6.03
2018-06-25T07:28:13.355Z,5.73
2018-06-25T07:30:41.612Z,5.53
2018-06-25T07:33:09.851Z,5.33
2018-06-25T07:35:38.109Z,5.50
2018-06-25T07:38:06.376Z,4.57
2018-06-25T07:40:34.760Z,4.87
2018-06-25T07:43:03.072Z,4.90
2018-06-25T07:45:31.312Z,4.87
2018-06-25T07:47:59.572Z,4.80
2018-06-25T07:50:27.779Z,4.87
2018-06-25T07:52:56.054Z,4.40
2018-06-25T07:55:24.324Z,4.50
2018-06-25T07:57:52.589Z,4.70
2018-06-25T08:00:20.817Z,4.13
2018-06-25T08:02:49.077Z,4.20
2018-06-25T08:05:17.500Z,5.00
2018-06-25T08:07:45.764Z,4.57
2018-06-25T08:10:14.083Z,3.80
2018-06-25T08:12:42.360Z,4.50
2018-06-25T08:15:10.592Z,4.47
2018-06-25T08:17:38.836Z,4.30
2018-06-25T08:20:07.101Z,5.07
2018-06-25T08:22:35.332Z,4.43
2018-06-25T08:25:03.560Z,4.37
2018-06-25T08:27:31.852Z,4.77
2018-06-25T08:30:00.119Z,4.97
2018-06-25T08:32:28.299Z,4.00
2018-06-25T08:34:56.549Z,4.40
2018-06-25T08:37:24.778Z,4.30
2018-06-25T08:39:53.215Z,4.57
2018-06-25T08:42:21.441Z,5.30
2018-06-25T08:44:49.676Z,4.60
2018-06-25T08:47:17.980Z,4.77
2018-06-25T08:49:46.210Z,4.60
2018-06-25T08:52:14.481Z,4.97
2018-06-25T08:54:42.767Z,5.10
2018-06-25T08:57:11.023Z,5.50
2018-06-25T08:59:38.970Z,5.43
2018-06-25T09:02:07.231Z,4.63
2018-06-25T09:04:35.441Z,4.70
2018-06-25T09:07:03.716Z,4.80
2018-06-25T09:09:31.800Z,4.37
2018-06-25T09:12:00.002Z,4.30
2018-06-25T09:14:28.244Z,4.23
2018-06-25T09:16:56.475Z,3.63
2018-06-25T09:19:24.732Z,4.07
2018-06-25T09:21:53.016Z,4.27
2018-06-25T09:24:21.320Z,4.00
2018-06-25T09:26:49.570Z,3.77
2018-06-25T09:29:17.852Z,5.30
2018-06-25T09:31:46.089Z,4.37
2018-06-25T09:34:19.639Z,4.23
2018-06-25T09:36:47.864Z,4.20
2018-06-25T09:39:16.152Z,4.37
2018-06-25T09:41:44.556Z,3.70
2018-06-25T09:44:12.641Z,3.50
2018-06-25T09:46:40.900Z,2.63
2018-06-25T09:49:09.148Z,2.63
2018-06-25T09:51:37.400Z,3.00
2018-06-25T09:54:05.759Z,2.83
2018-06-25T09:56:34.022Z,2.80
2018-06-25T09:59:02.275Z,2.43
2018-06-25T10:01:36.941Z,2.40
2018-06-25T10:04:05.152Z,2.83
2018-06-25T10:06:33.376Z,2.50
2018-06-25T10:09:01.641Z,2.90
2018-06-25T10:11:29.920Z,2.73
2018-06-25T10:13:58.188Z,3.20
2018-06-25T10:16:26.448Z,3.10
2018-06-25T10:18:54.716Z,3.40
2018-06-25T10:21:22.978Z,3.03
2018-06-25T10:23:51.207Z,3.20
2018-06-25T10:26:20.260Z,2.80
2018-06-25T10:28:48.513Z,3.20
2018-06-25T10:31:16.761Z,3.90
2018-06-25T10:33:44.999Z,2.90
2018-06-25T10:36:13.285Z,3.37
2018-06-25T10:38:41.648Z,3.07
2018-06-25T10:41:10.111Z,2.60
2018-06-25T10:43:38.575Z,2.80
2018-06-25T10:46:06.831Z,2.67
2018-06-25T10:48:35.104Z,3.67
2018-06-25T10:51:03.404Z,3.10
2018-06-25T10:53:31.408Z,3.10
2018-06-25T10:55:59.684Z,2.77
2018-06-25T10:58:27.932Z,2.03
2018-06-25T11:00:56.190Z,2.47
2018-06-25T11:03:24.449Z,1.97
2018-06-25T11:05:52.737Z,1.90
2018-06-25T11:08:20.972Z,2.80
2018-06-25T11:10:49.204Z,1.90
2018-06-25T11:13:17.440Z,1.90
2018-06-25T11:15:45.744Z,1.80
2018-06-25T11:18:13.948Z,1.90
2018-06-25T11:20:42.373Z,2.37
2018-06-25T11:23:10.636Z,1.80
2018-06-25T11:25:38.864Z,2.20
2018-06-25T11:28:07.100Z,1.73
2018-06-25T11:30:35.360Z,2.00
2018-06-25T11:33:03.576Z,2.17
2018-06-25T11:35:31.816Z,2.30
2018-06-25T11:38:00.026Z,2.10
2018-06-25T11:40:28.297Z,1.50
2018-06-25T11:42:56.531Z,3.23
2018-06-25T11:45:24.775Z,1.83
2018-06-25T11:47:52.984Z,1.30
2018-06-25T11:50:21.312Z,1.70
2018-06-25T11:52:49.549Z,1.80
2018-06-25T11:55:17.802Z,2.30
2018-06-25T11:57:46.057Z,1.53
2018-06-25T12:00:14.308Z,1.40
2018-06-25T12:02:42.747Z,2.10
2018-06-25T12:05:10.784Z,1.70
2018-06-25T12:07:39.020Z,2.10
2018-06-25T12:10:07.370Z,2.70
2018-06-25T12:12:35.627Z,2.67
2018-06-25T12:15:03.904Z,2.27
2018-06-25T12:17:32.228Z,2.50
2018-06-25T12:20:00.444Z,1.90
2018-06-25T12:22:28.688Z,2.00
2018-06-25T12:24:56.940Z,2.77
2018-06-25T12:27:25.188Z,2.13
2018-06-25T12:29:53.463Z,2.00
2018-06-25T12:32:21.716Z,2.33
2018-06-25T12:34:49.986Z,1.83
2018-06-25T12:37:18.304Z,2.47
2018-06-25T12:39:46.515Z,2.37
2018-06-25T12:42:14.768Z,2.27
2018-06-25T12:44:42.999Z,2.00
2018-06-25T12:47:11.668Z,2.50
2018-06-25T12:49:39.921Z,1.90
2018-06-25T12:52:08.177Z,1.80
2018-06-25T12:54:36.484Z,1.60
2018-06-25T12:57:04.797Z,1.87
2018-06-25T12:59:33.029Z,1.97
2018-06-25T13:02:01.323Z,1.30
2018-06-25T13:04:29.583Z,2.23
2018-06-25T13:06:57.795Z,2.10
2018-06-25T13:09:26.156Z,2.00
2018-06-25T13:11:54.386Z,1.90
2018-06-25T13:14:22.651Z,1.70
2018-06-25T13:16:50.883Z,1.43
2018-06-25T13:19:19.344Z,2.47
2018-06-25T13:21:47.576Z,2.67
2018-06-25T13:24:15.823Z,2.23
2018-06-25T13:26:44.045Z,2.37
2018-06-25T13:29:12.287Z,2.03
2018-06-25T13:31:40.563Z,1.30
2018-06-25T13:34:08.804Z,2.20
2018-06-25T13:36:37.024Z,1.97
2018-06-25T13:39:07.468Z,1.90
2018-06-25T13:41:35.745Z,1.50
2018-06-25T13:44:04.235Z,1.53
2018-06-25T13:46:32.244Z,1.70
2018-06-25T13:49:00.627Z,1.63
2018-06-25T13:51:28.967Z,1.50
2018-06-25T13:53:57.198Z,1.50
2018-06-25T13:56:25.763Z,1.53
2018-06-25T13:58:53.762Z,1.70
2018-06-25T14:01:22.547Z,1.60
2018-06-25T14:03:51.136Z,1.20
2018-06-25T14:06:20.103Z,1.07
2018-06-25T14:08:48.082Z,1.20
2018-06-25T14:11:16.348Z,1.27
2018-06-25T14:13:45.382Z,1.20
2018-06-25T14:16:13.728Z,1.33
2018-06-25T14:18:42.251Z,1.67
2018-06-25T14:21:11.044Z,1.30
2018-06-25T14:23:43.716Z,1.00
2018-06-25T14:26:12.200Z,1.10
2018-06-25T14:28:40.607Z,0.80
2018-06-25T14:31:14.439Z,0.90
2018-06-25T14:33:44.116Z,0.60
2018-06-25T14:36:12.548Z,0.83
2018-06-25T14:38:41.048Z,1.10
2018-06-25T14:41:09.493Z,0.90
2018-06-25T14:43:37.852Z,0.80
2018-06-25T14:46:06.123Z,0.80
2018-06-25T14:48:34.714Z,0.83
2018-06-25T14:51:03.565Z,0.87
2018-06-25T14:53:32.267Z,0.73
2018-06-25T14:56:00.778Z,1.00
2018-06-25T14:58:29.246Z,0.80
2018-06-25T15:00:57.455Z,0.90
2018-06-25T15:03:25.735Z,0.80
2018-06-25T15:05:54.475Z,0.73
2018-06-25T15:08:23.108Z,0.90
2018-06-25T15:10:51.403Z,0.93
2018-06-25T15:13:20.221Z,0.83
2018-06-25T15:15:48.572Z,0.70
2018-06-25T15:18:18.143Z,0.60
2018-06-25T15:20:46.952Z,0.73
2018-06-25T15:23:15.215Z,0.70
2018-06-25T15:25:43.474Z,0.70
2018-06-25T15:28:11.734Z,0.80
2018-06-25T15:30:40.019Z,0.70
2018-06-25T15:33:08.238Z,0.70
2018-06-25T15:35:36.513Z,1.70
2018-06-25T15:38:04.876Z,0.60
2018-06-25T15:40:33.070Z,1.30
2018-06-25T15:43:01.336Z,0.77
2018-06-25T15:45:29.583Z,0.70
2018-06-25T15:47:57.831Z,0.90
2018-06-25T15:50:26.431Z,0.60
2018-06-25T15:52:55.003Z,0.63
2018-06-25T15:55:23.578Z,0.90
2018-06-25T15:57:51.896Z,0.90
2018-06-25T16:00:20.211Z,0.80
2018-06-25T16:02:48.451Z,0.80
2018-06-25T16:05:16.423Z,0.87
2018-06-25T16:07:44.656Z,1.50
2018-06-25T16:10:12.883Z,0.80
2018-06-25T16:12:41.205Z,1.10
2018-06-25T16:15:09.436Z,1.07
2018-06-25T16:17:37.713Z,0.90
2018-06-25T16:20:06.068Z,1.00
2018-06-25T16:22:34.232Z,0.90
2018-06-25T16:25:02.483Z,1.10
2018-06-25T16:27:30.707Z,1.10
2018-06-25T16:29:58.968Z,0.97
2018-06-25T16:32:27.196Z,0.90
2018-06-25T16:34:56.171Z,1.20
2018-06-25T16:37:24.382Z,1.70
2018-06-25T16:39:52.777Z,0.90
2018-06-25T16:42:21.074Z,1.00
2018-06-25T16:44:49.357Z,1.60
2018-06-25T16:47:17.646Z,1.30
2018-06-25T16:49:45.891Z,1.30
2018-06-25T16:52:14.159Z,1.60
2018-06-25T16:54:42.410Z,1.07
2018-06-25T16:57:10.778Z,1.50
2018-06-25T16:59:39.246Z,1.40
2018-06-25T17:02:07.465Z,1.37
2018-06-25T17:04:35.683Z,1.27
2018-06-25T17:07:03.943Z,1.30
2018-06-25T17:09:32.209Z,1.33
2018-06-25T17:12:00.485Z,1.30
2018-06-25T17:14:28.725Z,1.43
2018-06-25T17:16:56.939Z,1.70
2018-06-25T17:19:25.236Z,2.00
2018-06-25T17:21:53.657Z,1.90
2018-06-25T17:24:21.919Z,1.63
2018-06-25T17:26:50.132Z,1.80
2018-06-25T17:29:18.407Z,1.30
2018-06-25T17:31:46.639Z,2.10
2018-06-25T17:34:14.839Z,1.70
2018-06-25T17:36:43.119Z,1.97
2018-06-25T17:39:11.375Z,1.70
2018-06-25T17:41:39.583Z,2.20
2018-06-25T17:44:07.900Z,2.10
2018-06-25T17:46:36.113Z,2.17
2018-06-25T17:49:04.636Z,1.90
2018-06-25T17:51:32.877Z,2.37
2018-06-25T17:54:01.145Z,1.90
2018-06-25T17:56:29.362Z,1.90
2018-06-25T17:58:57.772Z,2.00
2018-06-25T18:01:26.037Z,2.10
2018-06-25T18:03:54.427Z,1.80
2018-06-25T18:06:22.362Z,1.90
2018-06-25T18:08:50.583Z,1.90
2018-06-25T18:11:18.828Z,1.83
2018-06-25T18:13:47.069Z,1.70
2018-06-25T18:16:15.316Z,1.90
2018-06-25T18:18:43.528Z,1.60
2018-06-25T18:21:11.841Z,2.23
2018-06-25T18:23:40.035Z,2.33
2018-06-25T18:26:08.300Z,2.00
2018-06-25T18:28:36.536Z,2.57
2018-06-25T18:31:04.817Z,2.37
2018-06-25T18:33:33.161Z,2.80
2018-06-25T18:36:01.454Z,2.60
2018-06-25T18:38:29.889Z,3.03
2018-06-25T18:40:58.537Z,2.20
2018-06-25T18:43:26.747Z,2.90
2018-06-25T18:45:55.005Z,2.63
2018-06-25T18:48:23.452Z,2.23
2018-06-25T18:50:51.956Z,2.50
2018-06-25T18:53:20.184Z,3.07
2018-06-25T18:55:48.466Z,3.33
2018-06-25T18:58:16.744Z,2.50
2018-06-25T19:00:45.014Z,3.40
2018-06-25T19:03:13.235Z,2.90
2018-06-25T19:05:41.467Z,3.67
2018-06-25T19:08:09.727Z,3.37
2018-06-25T19:10:38.040Z,3.40
2018-06-25T19:13:06.255Z,3.70
2018-06-25T19:15:34.212Z,3.70
2018-06-25T19:18:02.441Z,2.83
2018-06-25T19:20:30.467Z,3.57
2018-06-25T19:22:58.762Z,4.20
2018-06-25T19:25:26.989Z,3.80
2018-06-25T19:27:55.263Z,4.03
2018-06-25T19:30:23.495Z,4.20
2018-06-25T19:32:51.699Z,3.87
2018-06-25T19:35:19.927Z,3.40
2018-06-25T19:37:48.231Z,3.90
2018-06-25T19:40:16.731Z,3.83
2018-06-25T19:42:45.457Z,3.20
2018-06-25T19:45:13.868Z,4.07
2018-06-25T19:47:42.288Z,3.93
2018-06-25T19:50:10.280Z,4.70
2018-06-25T19:52:38.507Z,4.07
2018-06-25T19:55:06.779Z,4.10
2018-06-25T19:57:34.992Z,3.70
2018-06-25T20:00:03.285Z,4.37
2018-06-25T20:02:31.516Z,3.70
2018-06-25T20:04:59.848Z,4.17
2018-06-25T20:07:28.089Z,3.97
2018-06-25T20:09:56.056Z,4.13
2018-06-25T20:12:24.846Z,3.87
2018-06-25T20:14:53.024Z,4.73
2018-06-25T20:17:21.376Z,3.70
2018-06-25T20:19:49.788Z,3.97
2018-06-25T20:22:18.059Z,4.20
2018-06-25T20:24:46.248Z,4.43
2018-06-25T20:27:14.499Z,4.40
2018-06-25T20:29:42.738Z,4.00
2018-06-25T20:32:10.721Z,3.80
2018-06-25T20:34:38.955Z,4.30
2018-06-25T20:37:07.196Z,4.47
2018-06-25T20:39:35.459Z,4.70
2018-06-25T20:42:03.728Z,4.37
2018-06-25T20:44:31.915Z,4.47
2018-06-25T20:47:00.454Z,3.93
2018-06-25T20:49:28.685Z,4.50
2018-06-25T20:51:56.959Z,4.90
2018-06-25T20:54:25.198Z,4.00
2018-06-25T20:56:53.493Z,4.90
2018-06-25T20:59:21.429Z,4.60
2018-06-25T21:01:49.667Z,4.53
2018-06-25T21:04:17.912Z,3.87
2018-06-25T21:06:46.151Z,4.30
2018-06-25T21:09:14.460Z,5.63
2018-06-25T21:11:43.043Z,5.00
2018-06-25T21:14:11.316Z,5.80
2018-06-25T21:16:39.372Z,5.00
2018-06-25T21:19:07.807Z,4.57
2018-06-25T21:21:36.084Z,4.50
2018-06-25T21:24:04.335Z,4.07
2018-06-25T21:26:32.592Z,4.73
2018-06-25T21:29:00.828Z,6.67
2018-06-25T21:31:29.108Z,5.10
2018-06-25T21:33:57.359Z,6.30
2018-06-25T21:36:25.612Z,5.30
2018-06-25T21:38:53.599Z,4.67
2018-06-25T21:41:22.138Z,5.50
2018-06-25T21:43:50.376Z,5.27
2018-06-25T21:46:18.636Z,6.50
2018-06-25T21:48:46.860Z,6.00
2018-06-25T21:51:15.149Z,5.20
2018-06-25T21:53:43.347Z,4.97
2018-06-25T21:56:11.576Z,4.67
2018-06-25T21:58:39.793Z,5.50
2018-06-25T22:01:08.057Z,5.47
2018-06-25T22:03:37.300Z,6.20
2018-06-25T22:06:05.648Z,6.50
2018-06-25T22:08:33.859Z,7.73
2018-06-25T22:11:02.263Z,7.40
2018-06-25T22:13:30.500Z,8.50
2018-06-25T22:15:58.719Z,7.20
2018-06-25T22:18:26.712Z,7.77
2018-06-25T22:20:54.969Z,7.10
2018-06-25T22:23:23.221Z,6.87
2018-06-25T22:25:51.464Z,6.30
2018-06-25T22:28:19.695Z,7.33
2018-06-25T22:30:47.943Z,7.83
2018-06-25T22:33:16.202Z,6.23
2018-06-25T22:35:44.408Z,6.03
2018-06-25T22:38:12.660Z,6.53
2018-06-25T22:40:40.983Z,5.57
2018-06-25T22:43:09.227Z,5.90
2018-06-25T22:45:37.515Z,6.73
2018-06-25T22:48:05.768Z,5.80
2018-06-25T22:50:34.018Z,6.97
2018-06-25T22:53:02.276Z,5.70
2018-06-25T22:55:32.401Z,6.10
2018-06-25T22:58:01.000Z,6.27
2018-06-25T23:00:29.428Z,6.57
2018-06-25T23:02:57.648Z,7.87
2018-06-25T23:05:25.900Z,5.77
2018-06-25T23:07:54.150Z,6.23
2018-06-25T23:10:22.601Z,6.20
2018-06-25T23:12:50.910Z,6.30
2018-06-25T23:15:19.129Z,7.73
2018-06-25T23:17:47.400Z,6.93
2018-06-25T23:20:15.608Z,7.43
2018-06-25T23:22:43.888Z,7.37
2018-06-25T23:25:12.104Z,6.97
2018-06-25T23:27:40.353Z,6.17
2018-06-25T23:30:08.568Z,7.07
2018-06-25T23:32:36.807Z,7.47
2018-06-25T23:35:05.029Z,7.63
2018-06-25T23:37:33.252Z,8.63
2018-06-25T23:40:01.628Z,7.83
2018-06-25T23:42:29.878Z,7.90
2018-06-25T23:44:58.112Z,7.20
2018-06-25T23:47:26.396Z,8.03
2018-06-25T23:49:54.637Z,8.93
2018-06-25T23:52:22.873Z,9.40
2018-06-25T23:54:51.154Z,8.80
2018-06-25T23:57:19.414Z,8.07
2018-06-25T23:59:47.672Z,8.20
